Main page
METAR-TAF:

METAR-TAF

Airports :

Beja Airbase

Beja, Portugal

latitude: 38-04-40N, longitude: 007-55-57W, elevation: 193 m

Current weather observation

The report was made 1 hour and 4 minutes ago, at 21:00 UTC
Temperature 22°C
Humidity 69%
Pressure 1015 hPa
Visibility 10 km or more
no clouds below 1500 m and no cumulonimbus

METAR: LPBJ 222100Z /////KT CAVOK 22/16 Q1015

Time: 23:04 (22:04 UTC)

Forecast

The report was made 5 hours and 3 minutes ago, at 17:01 UTC
Forecast valid from 22 at 18 UTC to 23 at 18 UTC
Wind 12 kt from the West
Visibility 10 km or more
no clouds below 1500 m and no cumulonimbus
Becoming
from 22 at 21 UTC to 22 at 23 UTC
Wind 5 kt from the West
Probability 40%
from 23 at 03 UTC to 23 at 08 UTC
Visibility: 0500 m
Broken clouds at a height of 300 ft
fog
Becoming
from 23 at 10 UTC to 23 at 12 UTC
Wind 12 kt from the West

TAF: LPBJ 221701Z 2218/2318 28012KT CAVOK BECMG 2221/2223 28005KT PROB40 2303/2308 0500 FG BKN003 BECMG 2310/2312 28012KT

Weather observations and forecasts of more than 4000 airports (METAR and TAF reports).

The available stations are represented by yellow and red dots on the map.

Hover mouse over dot to see the name of the station.

Then click to see weather observations and forecasts.

To change the map : click on the green buttons with a black cross to zoom in, on the green button with a dash to zoom out, or on the green arrows for adjacent maps.


METAR-TAF: